Time;durP1;ratioP1;P1;durP2;ratioP2;P2;SDS_P1;SDS_P2;PMS_P1;PMS_P2;Temp;Humidity;BMP_temperature;BMP_pressure;BME280_temperature;BME280_humidity;BME280_pressure;Samples;Min_cycle;Max_cycle;Signal;HPM_P1;HPM_P2
2021/12/08 00:00:51;;;;;;;6.60;3.30;;;4.50;99.90;;;;;;5119350;27;20049;-67
2021/12/08 00:03:17;;;;;;;9.50;3.53;;;4.60;99.90;;;;;;5134443;27;20615;-66
2021/12/08 00:05:44;;;;;;;12.50;4.00;;;4.60;99.90;;;;;;5126996;27;20067;-66
2021/12/08 00:08:14;;;;;;;8.90;3.60;;;4.50;99.90;;;;;;5132580;27;20467;-67
2021/12/08 00:13:00;;;;;;;10.88;3.88;;;4.50;99.90;;;;;;5131465;27;20490;-66
2021/12/08 00:13:32;;;;;;;8.85;3.38;;;4.60;99.90;;;;;;5131453;27;20054;-67
2021/12/08 00:16:08;;;;;;;15.13;4.43;;;4.60;99.90;;;;;;5120122;27;20107;-67
2021/12/08 00:18:34;;;;;;;10.15;3.47;;;4.50;99.90;;;;;;5113392;27;20039;-67
2021/12/08 00:21:03;;;;;;;10.40;3.72;;;4.60;99.90;;;;;;5132112;27;20043;-66
2021/12/08 00:23:29;;;;;;;8.93;3.28;;;4.50;99.90;;;;;;5128218;27;20043;-67
2021/12/08 00:25:56;;;;;;;6.22;3.38;;;4.50;99.90;;;;;;5141360;27;20043;-67
2021/12/08 00:28:23;;;;;;;12.43;4.00;;;4.50;99.90;;;;;;5110288;28;20112;-66
2021/12/08 00:30:53;;;;;;;9.10;4.28;;;4.50;99.90;;;;;;5112514;27;20167;-66
2021/12/08 00:33:19;;;;;;;8.27;3.85;;;4.50;99.90;;;;;;5119014;27;20035;-67
2021/12/08 00:35:47;;;;;;;14.00;4.22;;;4.60;99.90;;;;;;5114588;27;20122;-67
2021/12/08 00:38:14;;;;;;;9.38;3.67;;;4.50;99.90;;;;;;5116339;27;20052;-67
2021/12/08 00:40:40;;;;;;;9.02;3.90;;;4.60;99.90;;;;;;5107267;27;20412;-68
2021/12/08 00:43:06;;;;;;;13.57;4.05;;;4.60;99.90;;;;;;5110674;27;20410;-66
2021/12/08 00:45:34;;;;;;;10.70;3.63;;;4.70;99.90;;;;;;5129146;27;20054;-67
2021/12/08 00:48:00;;;;;;;9.80;3.70;;;4.60;99.90;;;;;;5109232;28;20096;-66
2021/12/08 00:50:29;;;;;;;13.43;4.97;;;4.60;99.90;;;;;;5116353;27;20241;-66
2021/12/08 00:52:56;;;;;;;7.60;5.00;;;4.60;99.90;;;;;;5117126;27;20123;-66
2021/12/08 00:55:23;;;;;;;12.35;4.25;;;4.70;99.90;;;;;;5113652;27;20047;-66
2021/12/08 00:57:49;;;;;;;10.65;4.28;;;4.60;99.90;;;;;;5124165;27;20050;-67
2021/12/08 01:00:29;;;;;;;12.57;4.63;;;4.60;99.90;;;;;;5109049;27;20044;-66
2021/12/08 01:02:55;;;;;;;12.73;5.03;;;4.60;99.90;;;;;;5108804;28;20081;-66
2021/12/08 01:05:25;;;;;;;6.63;3.90;;;4.60;99.90;;;;;;5105123;27;20052;-66
2021/12/08 01:07:50;;;;;;;14.52;5.20;;;4.60;99.90;;;;;;5104210;28;20046;-66
2021/12/08 01:10:22;;;;;;;11.05;4.18;;;4.60;99.90;;;;;;5121264;27;20126;-66
2021/12/08 01:12:49;;;;;;;14.52;4.28;;;4.60;99.90;;;;;;5108312;28;20553;-66
2021/12/08 01:15:15;;;;;;;8.43;4.40;;;4.60;99.90;;;;;;5108736;28;20063;-66
2021/12/08 01:17:41;;;;;;;12.70;3.90;;;4.70;99.90;;;;;;5105713;28;20131;-66
2021/12/08 01:20:09;;;;;;;10.65;4.93;;;4.60;99.90;;;;;;5122781;27;20043;-66
2021/12/08 01:22:35;;;;;;;10.18;3.78;;;4.60;99.90;;;;;;5111954;27;20061;-66
2021/12/08 01:25:01;;;;;;;7.78;4.43;;;4.60;99.90;;;;;;5105078;27;20643;-67
2021/12/08 01:27:27;;;;;;;12.55;4.90;;;4.60;99.90;;;;;;5115361;27;20062;-67
2021/12/08 01:29:52;;;;;;;9.27;4.57;;;4.60;99.90;;;;;;5129854;27;20043;-67
2021/12/08 01:32:19;;;;;;;10.68;5.63;;;4.60;99.90;;;;;;5109037;27;20085;-66
2021/12/08 01:34:45;;;;;;;9.65;5.68;;;4.60;99.90;;;;;;5129188;27;20087;-67
2021/12/08 01:37:11;;;;;;;10.82;4.93;;;4.60;99.90;;;;;;5111251;27;20043;-67
2021/12/08 01:39:36;;;;;;;6.75;4.40;;;4.70;99.90;;;;;;5133332;27;20043;-67
2021/12/08 01:42:03;;;;;;;11.98;4.88;;;4.70;99.90;;;;;;5136736;27;20043;-67
2021/12/08 01:47:13;;;;;;;11.13;4.38;;;4.70;99.90;;;;;;5129276;27;20092;-67
2021/12/08 01:49:39;;;;;;;6.65;4.45;;;4.70;99.90;;;;;;5129936;27;20043;-67
2021/12/08 01:52:04;;;;;;;8.05;5.13;;;4.70;99.90;;;;;;5126700;27;20263;-67
2021/12/08 01:54:30;;;;;;;10.90;4.60;;;4.70;99.90;;;;;;5130027;27;20078;-67
2021/12/08 01:56:57;;;;;;;6.82;5.43;;;4.70;99.90;;;;;;5129172;27;20046;-67
2021/12/08 01:59:23;;;;;;;13.52;5.22;;;4.70;99.90;;;;;;5117148;27;20046;-65
2021/12/08 02:01:49;;;;;;;9.07;5.30;;;4.70;99.90;;;;;;5119368;27;20039;-65
2021/12/08 02:04:15;;;;;;;7.72;5.47;;;4.70;99.90;;;;;;5140024;27;20046;-65
2021/12/08 02:06:43;;;;;;;12.98;5.65;;;4.70;99.90;;;;;;5132936;27;20728;-65
2021/12/08 02:09:12;;;;;;;10.07;5.18;;;4.70;99.90;;;;;;5128830;27;20031;-65
2021/12/08 02:11:39;;;;;;;10.35;5.53;;;4.70;99.90;;;;;;5132642;27;20046;-65
2021/12/08 02:14:05;;;;;;;6.75;4.55;;;4.70;99.90;;;;;;5131313;27;20099;-65
2021/12/08 02:16:31;;;;;;;8.75;5.65;;;4.70;99.90;;;;;;5130481;27;20035;-65
2021/12/08 02:18:59;;;;;;;10.40;5.10;;;4.70;99.90;;;;;;5126044;27;20516;-66
2021/12/08 02:21:30;;;;;;;9.95;4.88;;;4.70;99.90;;;;;;5123690;27;20047;-65
2021/12/08 02:23:59;;;;;;;7.47;5.00;;;4.80;99.90;;;;;;5109605;27;20043;-65
2021/12/08 02:26:26;;;;;;;8.05;5.00;;;4.70;99.90;;;;;;5110201;27;20039;-66
2021/12/08 02:28:53;;;;;;;12.88;5.85;;;4.80;99.90;;;;;;5110352;28;20125;-67
2021/12/08 02:31:30;;;;;;;11.07;6.05;;;4.80;99.90;;;;;;5128513;27;20047;-67
2021/12/08 02:47:53;;;;;;;12.18;6.30;;;5.00;99.90;;;;;;5129307;27;20066;-66
2021/12/08 02:50:40;;;;;;;13.27;6.38;;;4.90;99.90;;;;;;5126403;27;20051;-67
2021/12/08 02:53:07;;;;;;;8.10;6.13;;;4.90;99.90;;;;;;5127876;28;20104;-67
2021/12/08 02:55:33;;;;;;;15.05;6.22;;;5.00;99.90;;;;;;5110380;27;20039;-67
2021/12/08 02:58:01;;;;;;;9.65;7.07;;;5.00;99.90;;;;;;5119107;27;20043;-67
2021/12/08 03:00:30;;;;;;;13.80;6.85;;;5.00;99.90;;;;;;5132038;27;20082;-67
2021/12/08 03:02:59;;;;;;;10.70;6.60;;;5.00;99.90;;;;;;5108699;27;20055;-67
2021/12/08 03:05:26;;;;;;;14.23;6.85;;;5.10;99.90;;;;;;5123518;28;20051;-67
2021/12/08 03:07:53;;;;;;;7.60;6.20;;;5.00;99.90;;;;;;5131508;27;20073;-67
2021/12/08 03:10:22;;;;;;;12.63;6.82;;;5.00;99.90;;;;;;5133410;27;20050;-67
2021/12/08 03:12:48;;;;;;;7.63;6.20;;;5.00;99.90;;;;;;5126894;27;20050;-67
2021/12/08 03:15:14;;;;;;;10.18;6.57;;;5.10;99.90;;;;;;5131041;27;20070;-67
2021/12/08 03:17:41;;;;;;;18.33;7.45;;;5.10;99.90;;;;;;5128503;28;20053;-67
2021/12/08 03:20:11;;;;;;;11.35;7.53;;;5.10;99.90;;;;;;5111778;27;20047;-67
2021/12/08 03:22:42;;;;;;;12.65;6.07;;;5.20;99.90;;;;;;5138404;27;20046;-67
2021/12/08 03:25:12;;;;;;;12.57;6.35;;;5.10;99.90;;;;;;5103572;28;20118;-67
2021/12/08 03:27:45;;;;;;;14.80;8.20;;;5.10;99.90;;;;;;5113377;28;20509;-67
2021/12/08 03:30:13;;;;;;;19.83;7.68;;;5.10;99.90;;;;;;5130598;27;20126;-66
2021/12/08 03:32:39;;;;;;;12.32;7.82;;;5.20;99.90;;;;;;5110308;28;20050;-69
2021/12/08 03:35:16;;;;;;;12.98;7.75;;;5.20;99.90;;;;;;5127031;28;20051;-66
2021/12/08 03:37:45;;;;;;;13.98;7.75;;;5.20;99.90;;;;;;5129019;27;20047;-66
2021/12/08 03:40:18;;;;;;;13.07;7.93;;;5.20;99.90;;;;;;5111421;28;20046;-66
2021/12/08 03:42:46;;;;;;;16.50;8.43;;;5.30;99.90;;;;;;5107824;28;20055;-66
2021/12/08 03:45:19;;;;;;;10.57;7.75;;;5.30;99.90;;;;;;5134324;27;20401;-66
2021/12/08 03:47:46;;;;;;;14.23;8.10;;;5.30;99.90;;;;;;5135898;27;20066;-65
2021/12/08 03:50:15;;;;;;;10.75;7.68;;;5.30;99.90;;;;;;5125498;27;20047;-66
2021/12/08 03:52:41;;;;;;;11.90;7.63;;;5.30;99.90;;;;;;5129051;28;20046;-66
2021/12/08 03:55:09;;;;;;;15.40;8.50;;;5.30;99.90;;;;;;5128217;28;20046;-66
2021/12/08 03:57:34;;;;;;;11.88;8.25;;;5.40;99.90;;;;;;5100718;28;20048;-67
2021/12/08 04:00:00;;;;;;;10.73;8.32;;;5.40;99.90;;;;;;5134523;27;20043;-67
2021/12/08 04:02:26;;;;;;;15.68;8.95;;;5.40;99.90;;;;;;5121364;27;20137;-66
2021/12/08 04:04:53;;;;;;;14.57;9.82;;;5.50;99.90;;;;;;5122987;27;20102;-67
2021/12/08 04:07:19;;;;;;;13.77;8.55;;;5.50;99.90;;;;;;5120911;27;20042;-67
2021/12/08 04:09:49;;;;;;;11.75;8.60;;;5.50;99.90;;;;;;5125962;27;20040;-66
2021/12/08 04:12:18;;;;;;;14.30;8.95;;;5.40;99.90;;;;;;5109435;27;20043;-67
2021/12/08 04:14:56;;;;;;;14.23;9.15;;;5.50;99.90;;;;;;5113483;27;20049;-66
2021/12/08 04:17:35;;;;;;;17.63;9.77;;;5.50;99.90;;;;;;5105220;27;20086;-67
2021/12/08 04:20:19;;;;;;;15.65;9.55;;;5.50;99.90;;;;;;5127269;27;20074;-66
2021/12/08 04:22:48;;;;;;;15.40;8.55;;;5.50;99.90;;;;;;5121399;27;20630;-67
2021/12/08 04:25:27;;;;;;;11.82;8.70;;;5.50;99.90;;;;;;5118009;27;20058;-66
2021/12/08 04:27:55;;;;;;;11.18;8.65;;;5.50;99.90;;;;;;5127951;27;20066;-67
2021/12/08 04:30:33;;;;;;;15.52;10.02;;;5.60;99.90;;;;;;5125378;27;20050;-67
2021/12/08 04:33:00;;;;;;;14.48;9.50;;;5.50;99.90;;;;;;5101813;27;20055;-66
2021/12/08 04:35:27;;;;;;;13.93;10.10;;;5.50;99.90;;;;;;5137874;27;20122;-66
2021/12/08 04:37:56;;;;;;;15.98;9.23;;;5.50;99.90;;;;;;5112363;27;20322;-66
2021/12/08 04:46:14;;;;;;;16.60;9.60;;;5.60;99.90;;;;;;5111286;27;20055;-67
2021/12/08 05:00:26;;;;;;;14.73;10.40;;;5.70;99.90;;;;;;5109288;27;20050;-66
2021/12/08 05:03:22;;;;;;;11.52;9.57;;;5.70;99.90;;;;;;5107392;27;20085;-66
2021/12/08 05:08:40;;;;;;;15.80;10.82;;;5.70;99.90;;;;;;5112752;27;20055;-66
2021/12/08 05:11:19;;;;;;;16.20;10.48;;;5.60;99.90;;;;;;5129686;27;20527;-66
2021/12/08 05:13:47;;;;;;;15.13;9.90;;;5.60;99.90;;;;;;5140112;27;20371;-67
2021/12/08 05:16:13;;;;;;;12.43;10.00;;;5.70;99.90;;;;;;5125125;27;20397;-66
2021/12/08 05:18:42;;;;;;;16.67;9.88;;;5.60;99.90;;;;;;5130464;27;20047;-66
2021/12/08 05:21:20;;;;;;;14.63;9.60;;;5.60;99.90;;;;;;5111476;27;20071;-66
2021/12/08 05:23:51;;;;;;;15.90;9.57;;;5.60;99.90;;;;;;5111296;27;20050;-67
2021/12/08 05:26:39;;;;;;;13.60;8.82;;;5.60;99.90;;;;;;5132675;27;20047;-66
2021/12/08 05:29:29;;;;;;;17.15;9.68;;;5.70;99.90;;;;;;5128352;27;20055;-67
2021/12/08 05:31:58;;;;;;;13.80;9.45;;;5.70;99.90;;;;;;5115500;27;20370;-66
2021/12/08 05:34:25;;;;;;;11.50;8.73;;;5.70;99.90;;;;;;5133367;27;20402;-66
2021/12/08 05:36:51;;;;;;;12.57;9.18;;;5.70;99.90;;;;;;5126799;27;20042;-66
2021/12/08 05:39:20;;;;;;;12.75;8.57;;;5.70;99.90;;;;;;5135711;27;20038;-66
2021/12/08 05:41:49;;;;;;;13.40;8.00;;;5.60;99.90;;;;;;5129961;27;20469;-66
2021/12/08 05:44:15;;;;;;;10.15;6.63;;;5.70;99.90;;;;;;5111490;27;20054;-66
2021/12/08 05:46:43;;;;;;;12.05;6.45;;;5.70;99.90;;;;;;5121223;27;20046;-66
2021/12/08 05:49:14;;;;;;;14.07;7.05;;;5.70;99.90;;;;;;5124740;27;20058;-66
2021/12/08 05:51:42;;;;;;;11.55;6.57;;;5.80;99.90;;;;;;5129271;27;20114;-66
2021/12/08 05:54:17;;;;;;;10.75;6.95;;;5.80;99.90;;;;;;5124937;27;20054;-66
2021/12/08 05:56:43;;;;;;;13.38;6.35;;;5.80;99.90;;;;;;5112256;27;20463;-66
2021/12/08 05:59:11;;;;;;;14.65;6.88;;;5.80;99.90;;;;;;5113189;27;20051;-66
2021/12/08 06:01:57;;;;;;;17.58;6.80;;;5.80;99.90;;;;;;5129106;27;20039;-66
2021/12/08 06:04:25;;;;;;;10.95;6.25;;;5.80;99.90;;;;;;5105519;27;20055;-66
2021/12/08 06:06:51;;;;;;;11.40;6.50;;;5.90;99.90;;;;;;5130123;27;20043;-66
2021/12/08 06:09:19;;;;;;;18.10;7.65;;;5.80;99.90;;;;;;5111017;27;20494;-66
2021/12/08 06:11:46;;;;;;;14.13;7.20;;;5.80;99.90;;;;;;5111219;27;20039;-66
2021/12/08 06:14:13;;;;;;;19.27;6.47;;;5.80;99.90;;;;;;5134647;27;20063;-66
2021/12/08 06:16:41;;;;;;;13.18;6.78;;;5.80;99.90;;;;;;5128278;27;20038;-66
2021/12/08 06:19:09;;;;;;;13.77;6.10;;;5.90;99.90;;;;;;5142027;27;20074;-66
2021/12/08 06:21:35;;;;;;;19.88;8.23;;;5.80;99.90;;;;;;5125461;27;20031;-66
2021/12/08 06:24:05;;;;;;;9.77;6.28;;;5.90;99.90;;;;;;5118745;27;20053;-66
2021/12/08 06:26:31;;;;;;;11.57;6.45;;;5.80;99.90;;;;;;5133068;27;20046;-66
2021/12/08 06:28:58;;;;;;;15.98;8.25;;;5.80;99.90;;;;;;5121087;27;20055;-66
2021/12/08 06:31:27;;;;;;;12.00;6.35;;;5.80;99.90;;;;;;5128480;27;20118;-66
2021/12/08 06:33:53;;;;;;;17.50;6.68;;;5.80;99.90;;;;;;5130817;27;20047;-66
2021/12/08 06:36:25;;;;;;;12.40;6.20;;;5.80;99.90;;;;;;5128472;27;20034;-66
2021/12/08 06:38:55;;;;;;;12.20;5.72;;;5.80;99.90;;;;;;5127333;27;20039;-66
2021/12/08 06:41:32;;;;;;;12.85;6.00;;;5.80;99.90;;;;;;5146863;27;20046;-66
2021/12/08 06:44:04;;;;;;;16.23;5.97;;;5.80;99.90;;;;;;5138856;27;20035;-66
2021/12/08 06:46:30;;;;;;;17.90;5.45;;;5.80;99.90;;;;;;5127472;28;20627;-66
2021/12/08 06:48:58;;;;;;;14.52;6.47;;;5.80;99.90;;;;;;5134042;27;20077;-66
2021/12/08 06:51:30;;;;;;;15.93;6.05;;;5.80;99.90;;;;;;5112463;28;20084;-66
2021/12/08 06:54:04;;;;;;;16.67;6.70;;;5.80;99.90;;;;;;5127726;28;20767;-66
2021/12/08 06:56:35;;;;;;;9.85;5.68;;;5.80;99.90;;;;;;5133069;27;20039;-66
2021/12/08 06:59:08;;;;;;;13.15;5.97;;;5.90;99.90;;;;;;5129141;28;20366;-66
2021/12/08 07:01:49;;;;;;;12.38;6.20;;;5.80;99.90;;;;;;5123641;28;20031;-66
2021/12/08 07:04:31;;;;;;;10.82;6.53;;;5.80;99.90;;;;;;5108706;27;20089;-66
2021/12/08 07:07:14;;;;;;;10.60;5.68;;;5.80;99.90;;;;;;5101362;28;20054;-66
2021/12/08 07:09:48;;;;;;;10.23;5.40;;;5.90;99.90;;;;;;5133206;27;20082;-66
2021/12/08 07:12:20;;;;;;;;;;;5.90;99.90;;;;;;5130521;27;20118;-66
2021/12/08 07:14:50;;;;;;;16.52;6.75;;;5.90;99.90;;;;;;5129443;28;20022;-66
2021/12/08 07:17:21;;;;;;;12.00;6.40;;;5.90;99.90;;;;;;5128050;27;20539;-66
2021/12/08 07:20:02;;;;;;;15.50;5.35;;;5.90;99.90;;;;;;5113855;28;20043;-66
2021/12/08 07:22:30;;;;;;;12.73;5.40;;;5.90;99.90;;;;;;5134316;27;20051;-66
2021/12/08 07:24:59;;;;;;;16.20;6.70;;;5.90;99.90;;;;;;5127641;27;20047;-66
2021/12/08 07:27:28;;;;;;;9.00;5.20;;;5.90;99.90;;;;;;5127338;27;20615;-67
2021/12/08 07:29:56;;;;;;;9.75;4.90;;;5.90;99.90;;;;;;5132462;27;20049;-68
2021/12/08 07:32:29;;;;;;;15.40;5.47;;;5.90;99.90;;;;;;5120101;27;20055;-68
2021/12/08 07:34:57;;;;;;;8.70;4.40;;;5.90;99.90;;;;;;5130876;27;20039;-67
2021/12/08 07:37:27;;;;;;;14.18;5.10;;;5.90;99.90;;;;;;5132886;27;20047;-66
2021/12/08 07:40:03;;;;;;;10.38;4.68;;;5.90;99.90;;;;;;5141578;27;20397;-67
2021/12/08 07:42:34;;;;;;;10.43;5.25;;;5.90;99.90;;;;;;5116352;27;20046;-66
2021/12/08 07:45:07;;;;;;;13.13;5.07;;;5.90;99.90;;;;;;5122627;27;20043;-67
2021/12/08 07:47:33;;;;;;;7.78;4.78;;;5.90;99.90;;;;;;5117810;27;20046;-66
2021/12/08 07:50:18;;;;;;;9.35;5.18;;;5.90;99.90;;;;;;5134442;27;20047;-66
2021/12/08 07:52:47;;;;;;;17.58;5.45;;;5.90;99.90;;;;;;5135271;27;20453;-66
2021/12/08 07:55:21;;;;;;;15.90;4.97;;;5.90;99.90;;;;;;5141125;27;20374;-66
2021/12/08 07:57:48;;;;;;;9.70;4.57;;;6.00;99.90;;;;;;5122286;27;20565;-66
2021/12/08 08:00:38;;;;;;;15.63;4.38;;;5.90;99.90;;;;;;5128255;27;20036;-66
2021/12/08 08:03:07;;;;;;;12.15;4.47;;;6.00;99.90;;;;;;5104571;27;20090;-66
2021/12/08 08:05:33;;;;;;;7.78;4.38;;;6.00;99.90;;;;;;5124109;27;20031;-66
2021/12/08 08:08:03;;;;;;;8.52;3.90;;;6.00;99.90;;;;;;5147404;27;20389;-66
2021/12/08 08:10:31;;;;;;;10.15;4.10;;;6.00;99.90;;;;;;5114425;27;20047;-66
2021/12/08 08:13:01;;;;;;;13.20;5.60;;;6.00;99.90;;;;;;5110621;27;20093;-68
2021/12/08 08:15:31;;;;;;;9.45;4.68;;;6.00;99.90;;;;;;5100971;27;20050;-67
2021/12/08 08:17:57;;;;;;;12.27;4.22;;;6.00;99.90;;;;;;5104854;27;20051;-67
2021/12/08 08:20:30;;;;;;;15.43;3.90;;;5.90;99.90;;;;;;5126072;27;20039;-67
2021/12/08 08:22:58;;;;;;;9.52;3.63;;;6.00;99.90;;;;;;5125284;27;20079;-67
2021/12/08 08:25:28;;;;;;;17.17;4.60;;;5.90;99.90;;;;;;5105973;27;20036;-67
2021/12/08 08:27:55;;;;;;;11.50;3.15;;;5.90;99.90;;;;;;5100466;28;20047;-67
2021/12/08 08:30:26;;;;;;;10.93;3.80;;;5.90;99.90;;;;;;5107763;27;20071;-67
2021/12/08 08:32:54;;;;;;;14.93;3.42;;;5.90;99.90;;;;;;5106060;28;20055;-67
2021/12/08 08:35:34;;;;;;;7.47;3.15;;;5.80;99.90;;;;;;5103610;28;20043;-67
2021/12/08 08:38:05;;;;;;;12.30;3.33;;;5.80;99.90;;;;;;5096360;28;20045;-67
2021/12/08 08:40:38;;;;;;;10.40;3.20;;;5.80;99.90;;;;;;5120421;27;20072;-67
2021/12/08 08:43:05;;;;;;;9.25;3.00;;;5.70;99.90;;;;;;5099449;28;20742;-67
2021/12/08 08:45:40;;;;;;;10.23;2.92;;;5.70;99.90;;;;;;5108792;28;20070;-67
2021/12/08 08:48:19;;;;;;;9.23;4.03;;;5.70;99.90;;;;;;5107448;28;20056;-67
2021/12/08 08:50:51;;;;;;;21.48;3.75;;;5.70;99.90;;;;;;5107296;27;20086;-67
2021/12/08 08:53:19;;;;;;;10.52;3.28;;;5.70;99.90;;;;;;5117488;27;20043;-69
2021/12/08 08:55:54;;;;;;;13.35;4.35;;;5.60;99.90;;;;;;5104416;27;20086;-67
2021/12/08 08:58:23;;;;;;;15.57;3.83;;;5.60;99.90;;;;;;5125843;27;20398;-67
2021/12/08 09:01:00;;;;;;;13.00;3.03;;;5.60;99.90;;;;;;5101750;28;20468;-67
2021/12/08 09:03:34;;;;;;;16.17;3.42;;;5.60;99.90;;;;;;5105837;27;20273;-67
2021/12/08 09:06:18;;;;;;;9.95;2.90;;;5.60;99.90;;;;;;5109080;27;20040;-67
2021/12/08 09:08:45;;;;;;;18.10;3.65;;;5.60;99.90;;;;;;5108911;28;20134;-67
2021/12/08 09:11:20;;;;;;;11.45;2.53;;;5.60;99.90;;;;;;5107979;27;20405;-67
2021/12/08 09:13:50;;;;;;;13.18;3.58;;;5.70;99.90;;;;;;5112706;27;20043;-67
2021/12/08 09:16:23;;;;;;;12.30;2.90;;;5.70;99.90;;;;;;5103102;28;20040;-67
2021/12/08 09:19:02;;;;;;;11.30;3.60;;;5.70;99.90;;;;;;5105972;28;20503;-67
2021/12/08 09:21:58;;;;;;;15.75;3.40;;;5.70;99.90;;;;;;5102243;27;20130;-67
2021/12/08 09:24:37;;;;;;;12.60;2.75;;;5.80;99.90;;;;;;5117942;27;20052;-67
2021/12/08 09:27:06;;;;;;;14.90;2.53;;;5.80;99.90;;;;;;5106266;27;20115;-68
2021/12/08 09:29:42;;;;;;;12.13;3.47;;;5.80;99.90;;;;;;5138763;27;20113;-67
2021/12/08 09:32:13;;;;;;;10.20;3.15;;;5.80;99.90;;;;;;5132043;27;20039;-67
2021/12/08 09:34:45;;;;;;;9.30;3.42;;;5.90;99.90;;;;;;5129125;27;20122;-67
2021/12/08 09:37:15;;;;;;;10.70;2.75;;;5.90;99.90;;;;;;5128704;27;20046;-67
2021/12/08 09:39:48;;;;;;;13.07;2.63;;;5.90;99.90;;;;;;5124371;27;20078;-67
2021/12/08 09:42:40;;;;;;;9.32;2.92;;;6.00;99.90;;;;;;5127269;27;20103;-67
2021/12/08 09:45:22;;;;;;;12.18;2.95;;;6.00;99.90;;;;;;5112267;27;20061;-67
2021/12/08 09:47:47;;;;;;;11.65;2.83;;;6.10;99.90;;;;;;5126616;27;20068;-67
2021/12/08 09:50:15;;;;;;;8.50;3.03;;;6.10;99.90;;;;;;5131221;27;20130;-67
2021/12/08 09:52:43;;;;;;;8.73;3.03;;;6.10;99.90;;;;;;5131132;27;20049;-67
2021/12/08 09:55:10;;;;;;;8.65;3.03;;;6.10;99.90;;;;;;5122004;27;20519;-67
2021/12/08 09:57:36;;;;;;;18.90;4.07;;;6.10;99.90;;;;;;5126506;27;20074;-68
2021/12/08 10:00:05;;;;;;;14.13;3.38;;;6.10;99.90;;;;;;5111178;27;20083;-67
2021/12/08 10:02:34;;;;;;;10.25;3.15;;;6.10;99.90;;;;;;5112225;27;20096;-67
2021/12/08 10:05:11;;;;;;;13.35;3.70;;;6.10;99.90;;;;;;5134289;27;20060;-67
2021/12/08 10:07:37;;;;;;;9.32;3.00;;;6.10;99.90;;;;;;5127724;27;20493;-67
2021/12/08 10:10:06;;;;;;;10.57;3.38;;;6.10;99.90;;;;;;5114720;27;20058;-67
2021/12/08 10:12:34;;;;;;;12.52;3.65;;;6.20;99.90;;;;;;5140358;27;20042;-67
2021/12/08 10:15:01;;;;;;;11.10;3.78;;;6.20;99.90;;;;;;5130880;27;20039;-67
2021/12/08 10:17:26;;;;;;;10.30;3.38;;;6.20;99.90;;;;;;5133502;27;20532;-67
2021/12/08 10:20:10;;;;;;;11.75;3.72;;;6.20;99.90;;;;;;5120965;27;20055;-67
2021/12/08 10:22:37;;;;;;;10.10;3.38;;;6.20;99.90;;;;;;5120139;27;20188;-67
2021/12/08 10:25:20;;;;;;;14.07;3.50;;;6.20;99.90;;;;;;5098485;27;20054;-67
2021/12/08 10:28:10;;;;;;;12.25;3.53;;;6.20;99.90;;;;;;5127798;27;20055;-67
2021/12/08 10:30:45;;;;;;;6.63;2.85;;;6.30;99.90;;;;;;5111370;27;20062;-67
2021/12/08 10:39:15;;;;;;;10.00;3.17;;;6.50;99.90;;;;;;5140641;27;20051;-67
2021/12/08 10:42:13;;;;;;;9.18;3.35;;;6.50;99.90;;;;;;5138370;27;20583;-67
2021/12/08 10:47:27;;;;;;;12.07;3.92;;;6.60;99.90;;;;;;5135195;27;20039;-67
2021/12/08 10:55:18;;;;;;;7.40;2.47;;;6.60;99.90;;;;;;5111907;27;20046;-66
2021/12/08 10:57:47;;;;;;;11.15;4.28;;;6.60;99.90;;;;;;5110616;28;20528;-66
2021/12/08 11:00:28;;;;;;;7.80;2.25;;;6.60;99.90;;;;;;5124997;28;20395;-67
2021/12/08 11:02:59;;;;;;;13.27;3.53;;;6.60;99.90;;;;;;5127111;28;20035;-67
2021/12/08 11:05:24;;;;;;;11.32;2.75;;;6.60;99.90;;;;;;5131514;27;20057;-67
2021/12/08 11:08:13;;;;;;;18.73;5.38;;;6.60;99.90;;;;;;5116147;27;20047;-67
2021/12/08 11:10:48;;;;;;;10.38;2.75;;;6.70;99.90;;;;;;5134136;27;20047;-67
2021/12/08 11:13:16;;;;;;;7.18;2.88;;;6.60;99.90;;;;;;5114605;27;20090;-67
2021/12/08 11:15:42;;;;;;;17.35;3.35;;;6.70;99.90;;;;;;5132975;27;20031;-67
2021/12/08 11:18:30;;;;;;;12.85;3.42;;;6.70;99.90;;;;;;5130790;27;20040;-67
2021/12/08 11:20:59;;;;;;;7.45;2.92;;;6.70;99.90;;;;;;5117253;27;20568;-67
2021/12/08 11:23:40;;;;;;;12.95;3.70;;;6.70;99.90;;;;;;5132813;27;20740;-67
2021/12/08 11:26:24;;;;;;;12.32;3.55;;;6.70;99.90;;;;;;5110766;27;20115;-67
2021/12/08 11:28:58;;;;;;;14.15;3.67;;;6.70;99.90;;;;;;5110553;27;20162;-67
2021/12/08 11:31:26;;;;;;;17.20;3.85;;;6.70;99.90;;;;;;5112617;27;20118;-67
2021/12/08 11:34:00;;;;;;;10.45;2.90;;;6.70;99.90;;;;;;5114858;27;20523;-67
2021/12/08 11:36:27;;;;;;;;;;;6.70;99.90;;;;;;5110956;27;20039;-67
2021/12/08 11:38:53;;;;;;;10.55;3.85;;;6.70;99.90;;;;;;5119572;27;19918;-67
2021/12/08 11:41:38;;;;;;;8.27;3.15;;;6.70;99.90;;;;;;5135748;27;20104;-67
2021/12/08 11:44:20;;;;;;;7.68;3.75;;;6.70;99.90;;;;;;5111370;27;20043;-67
2021/12/08 11:46:53;;;;;;;7.82;3.47;;;6.70;99.90;;;;;;5128538;27;20050;-67
2021/12/08 11:49:20;;;;;;;13.07;4.25;;;6.80;99.90;;;;;;5109543;27;20039;-67
2021/12/08 11:51:49;;;;;;;9.00;3.83;;;6.80;99.90;;;;;;5122987;27;20168;-67
2021/12/08 11:54:37;;;;;;;8.32;3.20;;;6.70;99.90;;;;;;5119817;27;20071;-66
2021/12/08 11:57:08;;;;;;;7.18;3.08;;;6.80;99.90;;;;;;5117828;27;20070;-67
2021/12/08 11:59:43;;;;;;;7.50;3.90;;;6.80;99.90;;;;;;5107786;28;20113;-67
2021/12/08 12:02:09;;;;;;;6.85;3.63;;;6.80;99.90;;;;;;5105930;27;20138;-67
2021/12/08 12:04:35;;;;;;;9.10;3.38;;;6.70;99.90;;;;;;5126131;27;20149;-67
2021/12/08 12:07:01;;;;;;;5.32;2.90;;;6.70;99.90;;;;;;5117774;27;20047;-67
2021/12/08 12:09:27;;;;;;;10.75;3.15;;;6.70;99.90;;;;;;5114072;27;20039;-67
2021/12/08 12:11:53;;;;;;;7.35;2.80;;;6.80;99.90;;;;;;5134011;27;20047;-67
2021/12/08 12:14:20;;;;;;;9.50;3.08;;;6.80;99.90;;;;;;5141887;27;20058;-67
2021/12/08 12:16:46;;;;;;;7.22;2.97;;;6.80;99.90;;;;;;5131423;27;20058;-67
2021/12/08 12:19:16;;;;;;;11.00;3.58;;;6.80;99.90;;;;;;5139548;27;20103;-67
2021/12/08 12:21:46;;;;;;;4.65;2.55;;;6.80;99.90;;;;;;5135903;27;20062;-67
2021/12/08 12:24:28;;;;;;;6.70;3.15;;;6.70;99.90;;;;;;5134177;27;20032;-67
2021/12/08 12:27:25;;;;;;;7.03;2.60;;;6.70;99.90;;;;;;5093546;28;20044;-67
2021/12/08 12:30:18;;;;;;;6.40;3.35;;;6.70;99.90;;;;;;5100191;28;20051;-67
2021/12/08 12:32:50;;;;;;;7.72;2.90;;;6.70;99.90;;;;;;5105658;27;20119;-67
2021/12/08 12:35:20;;;;;;;8.50;3.10;;;6.60;99.90;;;;;;5109082;27;20055;-67
2021/12/08 12:37:49;;;;;;;8.52;2.78;;;6.60;99.90;;;;;;5143884;27;20043;-67
2021/12/08 12:40:19;;;;;;;5.50;2.75;;;6.60;99.90;;;;;;5122567;27;20047;-67
2021/12/08 12:42:49;;;;;;;6.03;2.65;;;6.60;99.90;;;;;;5130788;27;20043;-67
2021/12/08 12:45:16;;;;;;;8.25;3.25;;;6.60;99.90;;;;;;5110025;27;20054;-67
2021/12/08 12:47:43;;;;;;;10.45;2.92;;;6.60;99.90;;;;;;5130449;27;20069;-67
2021/12/08 12:50:11;;;;;;;14.35;3.30;;;6.60;99.90;;;;;;5135205;27;20042;-67
2021/12/08 12:52:47;;;;;;;10.57;3.72;;;6.70;99.90;;;;;;5132113;27;20081;-67
2021/12/08 12:55:35;;;;;;;8.43;2.92;;;6.90;99.90;;;;;;5130306;27;20046;-67
2021/12/08 12:58:06;;;;;;;4.75;2.70;;;7.30;99.90;;;;;;5136399;27;20039;-67
2021/12/08 13:00:45;;;;;;;4.82;2.88;;;7.40;99.90;;;;;;5116933;27;20057;-67
2021/12/08 13:03:34;;;;;;;5.80;2.63;;;7.70;99.90;;;;;;5134303;27;20397;-67
2021/12/08 13:06:00;;;;;;;5.20;2.72;;;8.00;99.90;;;;;;5128238;27;20664;-68
2021/12/08 13:08:49;;;;;;;7.30;2.70;;;8.20;99.90;;;;;;5133525;27;20046;-67
2021/12/08 13:11:30;;;;;;;3.42;2.22;;;8.30;99.90;;;;;;5106067;27;20042;-67
2021/12/08 13:13:56;;;;;;;3.55;2.22;;;8.40;99.90;;;;;;5122525;27;20089;-68
2021/12/08 13:16:33;;;;;;;7.78;2.63;;;8.50;99.90;;;;;;5136290;27;20035;-68
2021/12/08 13:19:01;;;;;;;5.05;2.60;;;8.60;99.90;;;;;;5118666;27;20091;-68
2021/12/08 13:21:40;;;;;;;5.75;2.42;;;8.90;99.90;;;;;;5131436;27;20058;-68
2021/12/08 13:24:28;;;;;;;6.63;2.80;;;8.90;99.90;;;;;;5105254;27;20162;-68
2021/12/08 13:27:10;;;;;;;10.40;2.38;;;8.90;99.90;;;;;;5136491;27;20038;-68
2021/12/08 13:29:40;;;;;;;6.18;2.42;;;8.90;99.90;;;;;;5122925;27;20078;-68
2021/12/08 13:32:15;;;;;;;5.35;2.08;;;9.00;99.90;;;;;;5132348;27;20099;-68
2021/12/08 13:34:57;;;;;;;4.15;2.20;;;8.90;99.90;;;;;;5107729;27;20039;-67
2021/12/08 13:37:28;;;;;;;4.45;1.90;;;8.80;99.90;;;;;;5105850;27;20371;-67
2021/12/08 13:39:54;;;;;;;7.35;2.60;;;8.40;99.90;;;;;;5130214;27;21397;-68
2021/12/08 13:42:33;;;;;;;4.43;1.75;;;8.30;99.90;;;;;;5135301;27;20515;-68
2021/12/08 13:44:59;;;;;;;8.60;2.05;;;8.10;99.90;;;;;;5093818;28;20052;-68
2021/12/08 13:47:30;;;;;;;9.73;2.83;;;8.00;99.90;;;;;;5089893;28;20093;-67
2021/12/08 13:50:06;;;;;;;5.05;1.52;;;7.90;99.90;;;;;;5111699;27;20051;-67
2021/12/08 13:52:34;;;;;;;6.30;2.03;;;7.80;99.90;;;;;;5128909;27;20239;-67
2021/12/08 13:55:09;;;;;;;7.15;2.05;;;7.70;99.90;;;;;;5107289;27;20491;-68
2021/12/08 13:57:44;;;;;;;5.35;2.40;;;7.60;99.90;;;;;;5117332;27;20115;-68
2021/12/08 14:00:10;;;;;;;8.57;2.72;;;7.60;99.90;;;;;;5114610;27;20041;-67
2021/12/08 14:02:36;;;;;;;6.75;2.05;;;7.60;99.90;;;;;;5115785;27;20470;-68